LHPR/QGY METAR and TAF weather

Enter ICAO airport designator
Station Type Date Time Source
LHPR METAR 2019/08/18 19:15 UTC NOAA

LHPR 181915Z AUTO 15004KT 110V170 CAVOK 23/15 Q1014


Station Type Date Time Source
LHPR Decoded METAR 2019/08/18 19:15 UTC NOAA

Station name not available
Aug 18, 2019 - 03:15 PM EDT / 2019.08.18 1915 UTC
Wind: from the SSE (150 degrees) at 5 MPH (4 KT) (direction variable):0
Visibility: greater than 7 mile(s):0
Temperature: 73 F (23 C)
Dew Point: 59 F (15 C)
Relative Humidity: 60%
Pressure (altimeter): 29.94 in. Hg (1014 hPa)
ob: LHPR 181915Z AUTO 15004KT 110V170 CAVOK 23/15 Q1014
cycle: 19

Station Type Date Time Source
LHPR TAF UTC NOAA

Error!

Example: see airport list